sensor_id;sensor_type;location;lat;lon;timestamp;P1;durP1;ratioP1;P2;durP2;ratioP2
20649;SDS011;10484;48.736;9.332;2023-11-19T00:02:12;4.03;;;3.63;;
20649;SDS011;10484;48.736;9.332;2023-11-19T00:04:37;3.63;;;3.33;;
20649;SDS011;10484;48.736;9.332;2023-11-19T00:07:06;3.70;;;3.40;;
20649;SDS011;10484;48.736;9.332;2023-11-19T00:09:33;3.13;;;2.93;;
20649;SDS011;10484;48.736;9.332;2023-11-19T00:11:59;3.57;;;3.07;;
20649;SDS011;10484;48.736;9.332;2023-11-19T00:14:25;4.20;;;3.80;;
20649;SDS011;10484;48.736;9.332;2023-11-19T00:16:51;6.97;;;5.10;;
20649;SDS011;10484;48.736;9.332;2023-11-19T00:19:18;7.60;;;5.50;;
20649;SDS011;10484;48.736;9.332;2023-11-19T00:21:44;11.47;;;6.43;;
20649;SDS011;10484;48.736;9.332;2023-11-19T00:24:10;8.30;;;5.30;;
20649;SDS011;10484;48.736;9.332;2023-11-19T00:26:37;7.80;;;5.23;;
20649;SDS011;10484;48.736;9.332;2023-11-19T00:29:03;5.30;;;4.73;;
20649;SDS011;10484;48.736;9.332;2023-11-19T00:31:29;4.33;;;3.93;;
20649;SDS011;10484;48.736;9.332;2023-11-19T00:33:55;4.40;;;4.00;;
20649;SDS011;10484;48.736;9.332;2023-11-19T00:36:20;5.03;;;4.63;;
20649;SDS011;10484;48.736;9.332;2023-11-19T00:38:48;4.83;;;3.50;;
20649;SDS011;10484;48.736;9.332;2023-11-19T00:41:14;3.80;;;3.20;;
20649;SDS011;10484;48.736;9.332;2023-11-19T00:43:41;3.50;;;3.20;;
20649;SDS011;10484;48.736;9.332;2023-11-19T00:46:07;4.40;;;3.80;;
20649;SDS011;10484;48.736;9.332;2023-11-19T00:48:33;3.70;;;3.40;;
20649;SDS011;10484;48.736;9.332;2023-11-19T00:50:58;3.50;;;3.20;;
20649;SDS011;10484;48.736;9.332;2023-11-19T00:53:24;3.70;;;3.30;;
20649;SDS011;10484;48.736;9.332;2023-11-19T00:55:50;3.70;;;3.30;;
20649;SDS011;10484;48.736;9.332;2023-11-19T00:58:15;3.57;;;3.27;;
20649;SDS011;10484;48.736;9.332;2023-11-19T01:00:43;3.77;;;3.47;;
20649;SDS011;10484;48.736;9.332;2023-11-19T01:03:09;3.60;;;2.40;;
20649;SDS011;10484;48.736;9.332;2023-11-19T01:05:36;3.30;;;3.00;;
20649;SDS011;10484;48.736;9.332;2023-11-19T01:08:02;4.13;;;3.17;;
20649;SDS011;10484;48.736;9.332;2023-11-19T01:10:29;3.00;;;2.70;;
20649;SDS011;10484;48.736;9.332;2023-11-19T01:12:55;3.03;;;2.73;;
20649;SDS011;10484;48.736;9.332;2023-11-19T01:15:20;2.37;;;2.17;;
20649;SDS011;10484;48.736;9.332;2023-11-19T01:17:46;4.47;;;2.67;;
20649;SDS011;10484;48.736;9.332;2023-11-19T01:20:12;5.13;;;3.20;;
20649;SDS011;10484;48.736;9.332;2023-11-19T01:22:38;2.70;;;2.50;;
20649;SDS011;10484;48.736;9.332;2023-11-19T01:25:05;2.80;;;2.60;;
20649;SDS011;10484;48.736;9.332;2023-11-19T01:27:31;3.90;;;3.57;;
20649;SDS011;10484;48.736;9.332;2023-11-19T01:29:59;4.90;;;2.93;;
20649;SDS011;10484;48.736;9.332;2023-11-19T01:32:27;3.83;;;2.60;;
20649;SDS011;10484;48.736;9.332;2023-11-19T01:34:52;3.07;;;2.87;;
20649;SDS011;10484;48.736;9.332;2023-11-19T01:37:18;3.60;;;2.93;;
20649;SDS011;10484;48.736;9.332;2023-11-19T01:39:43;2.63;;;2.43;;
20649;SDS011;10484;48.736;9.332;2023-11-19T01:42:10;3.10;;;2.80;;
20649;SDS011;10484;48.736;9.332;2023-11-19T01:44:36;2.93;;;2.73;;
20649;SDS011;10484;48.736;9.332;2023-11-19T01:47:02;3.30;;;2.67;;
20649;SDS011;10484;48.736;9.332;2023-11-19T01:49:29;2.70;;;2.50;;
20649;SDS011;10484;48.736;9.332;2023-11-19T01:51:57;2.37;;;2.27;;
20649;SDS011;10484;48.736;9.332;2023-11-19T01:54:23;2.63;;;2.43;;
20649;SDS011;10484;48.736;9.332;2023-11-19T01:56:48;4.23;;;2.40;;
20649;SDS011;10484;48.736;9.332;2023-11-19T01:59:14;3.30;;;3.00;;
20649;SDS011;10484;48.736;9.332;2023-11-19T02:01:41;3.03;;;2.53;;
20649;SDS011;10484;48.736;9.332;2023-11-19T02:04:07;2.40;;;2.20;;
20649;SDS011;10484;48.736;9.332;2023-11-19T02:06:33;2.40;;;2.20;;
20649;SDS011;10484;48.736;9.332;2023-11-19T02:09:01;3.07;;;2.53;;
20649;SDS011;10484;48.736;9.332;2023-11-19T02:11:32;2.77;;;2.57;;
20649;SDS011;10484;48.736;9.332;2023-11-19T02:13:58;2.80;;;2.60;;
20649;SDS011;10484;48.736;9.332;2023-11-19T02:16:24;3.40;;;2.30;;
20649;SDS011;10484;48.736;9.332;2023-11-19T02:18:50;4.10;;;1.93;;
20649;SDS011;10484;48.736;9.332;2023-11-19T02:21:15;3.33;;;2.83;;
20649;SDS011;10484;48.736;9.332;2023-11-19T02:23:43;2.30;;;2.10;;
20649;SDS011;10484;48.736;9.332;2023-11-19T02:28:50;1.80;;;1.70;;
20649;SDS011;10484;48.736;9.332;2023-11-19T02:31:15;2.33;;;2.13;;
20649;SDS011;10484;48.736;9.332;2023-11-19T02:33:41;1.97;;;1.87;;
20649;SDS011;10484;48.736;9.332;2023-11-19T02:36:07;2.40;;;2.20;;
20649;SDS011;10484;48.736;9.332;2023-11-19T02:38:33;2.47;;;2.27;;
20649;SDS011;10484;48.736;9.332;2023-11-19T02:41:02;2.70;;;2.50;;
20649;SDS011;10484;48.736;9.332;2023-11-19T02:43:30;1.97;;;1.87;;
20649;SDS011;10484;48.736;9.332;2023-11-19T02:45:58;2.50;;;2.30;;
20649;SDS011;10484;48.736;9.332;2023-11-19T02:48:27;3.10;;;2.90;;
20649;SDS011;10484;48.736;9.332;2023-11-19T02:50:52;3.40;;;3.10;;
20649;SDS011;10484;48.736;9.332;2023-11-19T02:53:18;4.30;;;3.90;;
20649;SDS011;10484;48.736;9.332;2023-11-19T02:55:46;4.23;;;3.83;;
20649;SDS011;10484;48.736;9.332;2023-11-19T02:58:14;3.43;;;3.13;;
20649;SDS011;10484;48.736;9.332;2023-11-19T03:00:49;4.20;;;3.90;;
20649;SDS011;10484;48.736;9.332;2023-11-19T03:03:19;3.60;;;3.30;;
20649;SDS011;10484;48.736;9.332;2023-11-19T03:05:47;4.10;;;3.50;;
20649;SDS011;10484;48.736;9.332;2023-11-19T03:08:14;4.30;;;3.90;;
20649;SDS011;10484;48.736;9.332;2023-11-19T03:10:40;4.37;;;3.43;;
20649;SDS011;10484;48.736;9.332;2023-11-19T03:13:06;4.83;;;4.47;;
20649;SDS011;10484;48.736;9.332;2023-11-19T03:15:40;5.10;;;4.67;;
20649;SDS011;10484;48.736;9.332;2023-11-19T03:18:06;5.20;;;4.70;;
20649;SDS011;10484;48.736;9.332;2023-11-19T03:20:32;9.30;;;5.20;;
20649;SDS011;10484;48.736;9.332;2023-11-19T03:22:58;5.13;;;4.70;;
20649;SDS011;10484;48.736;9.332;2023-11-19T03:25:25;5.13;;;4.77;;
20649;SDS011;10484;48.736;9.332;2023-11-19T03:27:58;5.13;;;4.73;;
20649;SDS011;10484;48.736;9.332;2023-11-19T03:30:26;4.93;;;4.23;;
20649;SDS011;10484;48.736;9.332;2023-11-19T03:32:53;5.60;;;5.10;;
20649;SDS011;10484;48.736;9.332;2023-11-19T03:35:19;6.17;;;5.57;;
20649;SDS011;10484;48.736;9.332;2023-11-19T03:37:45;5.30;;;4.80;;
20649;SDS011;10484;48.736;9.332;2023-11-19T03:40:11;5.87;;;5.30;;
20649;SDS011;10484;48.736;9.332;2023-11-19T03:42:37;5.47;;;4.97;;
20649;SDS011;10484;48.736;9.332;2023-11-19T03:45:05;5.53;;;4.97;;
20649;SDS011;10484;48.736;9.332;2023-11-19T03:47:33;4.63;;;4.23;;
20649;SDS011;10484;48.736;9.332;2023-11-19T03:49:59;5.83;;;5.30;;
20649;SDS011;10484;48.736;9.332;2023-11-19T03:52:25;6.07;;;5.50;;
20649;SDS011;10484;48.736;9.332;2023-11-19T03:54:52;5.47;;;4.97;;
20649;SDS011;10484;48.736;9.332;2023-11-19T03:57:18;4.97;;;4.57;;
20649;SDS011;10484;48.736;9.332;2023-11-19T03:59:44;5.33;;;4.93;;
20649;SDS011;10484;48.736;9.332;2023-11-19T04:02:09;5.83;;;5.33;;
20649;SDS011;10484;48.736;9.332;2023-11-19T04:04:35;4.40;;;4.00;;
20649;SDS011;10484;48.736;9.332;2023-11-19T04:07:01;4.57;;;4.17;;
20649;SDS011;10484;48.736;9.332;2023-11-19T04:09:28;5.67;;;5.10;;
20649;SDS011;10484;48.736;9.332;2023-11-19T04:11:54;5.93;;;5.30;;
20649;SDS011;10484;48.736;9.332;2023-11-19T04:14:20;5.73;;;4.50;;
20649;SDS011;10484;48.736;9.332;2023-11-19T04:16:46;5.13;;;4.73;;
20649;SDS011;10484;48.736;9.332;2023-11-19T04:19:11;4.77;;;4.37;;
20649;SDS011;10484;48.736;9.332;2023-11-19T04:21:39;4.93;;;4.43;;
20649;SDS011;10484;48.736;9.332;2023-11-19T04:24:06;4.07;;;3.67;;
20649;SDS011;10484;48.736;9.332;2023-11-19T04:26:32;3.30;;;2.90;;
20649;SDS011;10484;48.736;9.332;2023-11-19T04:28:57;3.40;;;3.10;;
20649;SDS011;10484;48.736;9.332;2023-11-19T04:31:23;4.13;;;3.07;;
20649;SDS011;10484;48.736;9.332;2023-11-19T04:33:56;3.90;;;3.47;;
20649;SDS011;10484;48.736;9.332;2023-11-19T04:36:21;3.80;;;3.50;;
20649;SDS011;10484;48.736;9.332;2023-11-19T04:38:49;3.50;;;3.20;;
20649;SDS011;10484;48.736;9.332;2023-11-19T04:41:15;2.97;;;2.77;;
20649;SDS011;10484;48.736;9.332;2023-11-19T04:43:40;4.63;;;4.23;;
20649;SDS011;10484;48.736;9.332;2023-11-19T04:46:06;3.77;;;3.47;;
20649;SDS011;10484;48.736;9.332;2023-11-19T04:48:31;3.70;;;2.90;;
20649;SDS011;10484;48.736;9.332;2023-11-19T04:50:57;2.93;;;2.73;;
20649;SDS011;10484;48.736;9.332;2023-11-19T04:53:23;3.10;;;2.90;;
20649;SDS011;10484;48.736;9.332;2023-11-19T04:55:48;2.13;;;2.03;;
20649;SDS011;10484;48.736;9.332;2023-11-19T04:58:14;1.87;;;1.67;;
20649;SDS011;10484;48.736;9.332;2023-11-19T05:00:39;1.50;;;1.40;;
20649;SDS011;10484;48.736;9.332;2023-11-19T05:03:05;1.30;;;1.17;;
20649;SDS011;10484;48.736;9.332;2023-11-19T05:05:31;2.93;;;1.80;;
20649;SDS011;10484;48.736;9.332;2023-11-19T05:07:57;1.67;;;1.57;;
20649;SDS011;10484;48.736;9.332;2023-11-19T05:10:22;1.50;;;1.40;;
20649;SDS011;10484;48.736;9.332;2023-11-19T05:12:49;1.30;;;1.20;;
20649;SDS011;10484;48.736;9.332;2023-11-19T05:15:16;0.83;;;0.83;;
20649;SDS011;10484;48.736;9.332;2023-11-19T05:17:42;1.10;;;1.00;;
20649;SDS011;10484;48.736;9.332;2023-11-19T05:20:08;1.53;;;1.10;;
20649;SDS011;10484;48.736;9.332;2023-11-19T05:22:38;3.10;;;1.13;;
20649;SDS011;10484;48.736;9.332;2023-11-19T05:25:07;1.93;;;1.20;;
20649;SDS011;10484;48.736;9.332;2023-11-19T05:27:37;1.70;;;1.20;;
20649;SDS011;10484;48.736;9.332;2023-11-19T05:30:04;1.40;;;0.90;;
20649;SDS011;10484;48.736;9.332;2023-11-19T05:32:35;0.83;;;0.80;;
20649;SDS011;10484;48.736;9.332;2023-11-19T05:35:01;1.17;;;1.07;;
20649;SDS011;10484;48.736;9.332;2023-11-19T05:37:26;1.13;;;1.03;;
20649;SDS011;10484;48.736;9.332;2023-11-19T05:39:52;1.10;;;1.00;;
20649;SDS011;10484;48.736;9.332;2023-11-19T05:42:18;0.60;;;0.60;;
20649;SDS011;10484;48.736;9.332;2023-11-19T05:44:43;0.80;;;0.80;;
20649;SDS011;10484;48.736;9.332;2023-11-19T05:47:09;0.97;;;0.60;;
20649;SDS011;10484;48.736;9.332;2023-11-19T05:49:34;0.83;;;0.83;;
20649;SDS011;10484;48.736;9.332;2023-11-19T05:52:00;1.37;;;0.63;;
20649;SDS011;10484;48.736;9.332;2023-11-19T05:54:28;0.97;;;0.63;;
20649;SDS011;10484;48.736;9.332;2023-11-19T05:56:53;0.90;;;0.80;;
20649;SDS011;10484;48.736;9.332;2023-11-19T05:59:19;0.70;;;0.70;;
20649;SDS011;10484;48.736;9.332;2023-11-19T06:01:45;0.97;;;0.80;;
20649;SDS011;10484;48.736;9.332;2023-11-19T06:04:11;0.57;;;0.53;;
20649;SDS011;10484;48.736;9.332;2023-11-19T06:06:37;0.53;;;0.40;;
20649;SDS011;10484;48.736;9.332;2023-11-19T06:09:03;0.60;;;0.60;;
20649;SDS011;10484;48.736;9.332;2023-11-19T06:11:29;1.57;;;0.50;;
20649;SDS011;10484;48.736;9.332;2023-11-19T06:13:55;0.93;;;0.70;;
20649;SDS011;10484;48.736;9.332;2023-11-19T06:16:21;0.40;;;0.40;;
20649;SDS011;10484;48.736;9.332;2023-11-19T06:18:47;0.57;;;0.43;;
20649;SDS011;10484;48.736;9.332;2023-11-19T06:21:12;0.53;;;0.47;;
20649;SDS011;10484;48.736;9.332;2023-11-19T06:23:38;2.60;;;0.50;;
20649;SDS011;10484;48.736;9.332;2023-11-19T06:26:03;0.40;;;0.40;;
20649;SDS011;10484;48.736;9.332;2023-11-19T06:28:30;0.67;;;0.50;;
20649;SDS011;10484;48.736;9.332;2023-11-19T06:30:56;0.40;;;0.40;;
20649;SDS011;10484;48.736;9.332;2023-11-19T06:33:23;0.50;;;0.50;;
20649;SDS011;10484;48.736;9.332;2023-11-19T06:35:52;0.63;;;0.53;;
20649;SDS011;10484;48.736;9.332;2023-11-19T06:38:17;1.77;;;0.80;;
20649;SDS011;10484;48.736;9.332;2023-11-19T06:40:43;0.53;;;0.50;;
20649;SDS011;10484;48.736;9.332;2023-11-19T06:43:08;0.70;;;0.60;;
20649;SDS011;10484;48.736;9.332;2023-11-19T06:45:34;1.10;;;0.50;;
20649;SDS011;10484;48.736;9.332;2023-11-19T06:48:01;1.27;;;0.80;;
20649;SDS011;10484;48.736;9.332;2023-11-19T06:50:30;4.10;;;1.10;;
20649;SDS011;10484;48.736;9.332;2023-11-19T06:52:56;1.40;;;1.30;;
20649;SDS011;10484;48.736;9.332;2023-11-19T06:55:22;1.60;;;1.17;;
20649;SDS011;10484;48.736;9.332;2023-11-19T06:57:48;1.37;;;1.27;;
20649;SDS011;10484;48.736;9.332;2023-11-19T07:00:13;0.97;;;0.80;;
20649;SDS011;10484;48.736;9.332;2023-11-19T07:02:39;0.70;;;0.70;;
20649;SDS011;10484;48.736;9.332;2023-11-19T07:05:05;1.03;;;0.97;;
20649;SDS011;10484;48.736;9.332;2023-11-19T07:07:31;0.80;;;0.80;;
20649;SDS011;10484;48.736;9.332;2023-11-19T07:09:57;1.00;;;1.00;;
20649;SDS011;10484;48.736;9.332;2023-11-19T07:12:23;1.60;;;0.80;;
20649;SDS011;10484;48.736;9.332;2023-11-19T07:14:51;1.10;;;0.77;;
20649;SDS011;10484;48.736;9.332;2023-11-19T07:17:17;0.80;;;0.70;;
20649;SDS011;10484;48.736;9.332;2023-11-19T07:19:45;1.20;;;1.10;;
20649;SDS011;10484;48.736;9.332;2023-11-19T07:22:11;1.30;;;1.20;;
20649;SDS011;10484;48.736;9.332;2023-11-19T07:24:38;0.60;;;0.60;;
20649;SDS011;10484;48.736;9.332;2023-11-19T07:27:04;1.47;;;0.80;;
20649;SDS011;10484;48.736;9.332;2023-11-19T07:29:30;1.30;;;0.60;;
20649;SDS011;10484;48.736;9.332;2023-11-19T07:31:56;1.30;;;0.70;;
20649;SDS011;10484;48.736;9.332;2023-11-19T07:34:22;1.67;;;1.20;;
20649;SDS011;10484;48.736;9.332;2023-11-19T07:36:48;0.73;;;0.73;;
20649;SDS011;10484;48.736;9.332;2023-11-19T07:39:14;1.23;;;1.10;;
20649;SDS011;10484;48.736;9.332;2023-11-19T07:41:39;1.13;;;0.70;;
20649;SDS011;10484;48.736;9.332;2023-11-19T07:44:05;2.03;;;1.80;;
20649;SDS011;10484;48.736;9.332;2023-11-19T07:46:31;1.70;;;1.60;;
20649;SDS011;10484;48.736;9.332;2023-11-19T07:48:57;1.00;;;0.90;;
20649;SDS011;10484;48.736;9.332;2023-11-19T07:51:22;1.80;;;1.47;;
20649;SDS011;10484;48.736;9.332;2023-11-19T07:53:48;1.93;;;1.17;;
20649;SDS011;10484;48.736;9.332;2023-11-19T07:56:14;2.23;;;0.77;;
20649;SDS011;10484;48.736;9.332;2023-11-19T07:58:40;0.80;;;0.70;;
20649;SDS011;10484;48.736;9.332;2023-11-19T08:01:06;0.73;;;0.60;;
20649;SDS011;10484;48.736;9.332;2023-11-19T08:03:32;1.27;;;0.60;;
20649;SDS011;10484;48.736;9.332;2023-11-19T08:05:59;0.80;;;0.80;;
20649;SDS011;10484;48.736;9.332;2023-11-19T08:08:25;0.57;;;0.57;;
20649;SDS011;10484;48.736;9.332;2023-11-19T08:10:50;0.80;;;0.50;;
20649;SDS011;10484;48.736;9.332;2023-11-19T08:13:17;1.40;;;0.50;;
20649;SDS011;10484;48.736;9.332;2023-11-19T08:15:43;1.23;;;0.67;;
20649;SDS011;10484;48.736;9.332;2023-11-19T08:18:09;0.70;;;0.63;;
20649;SDS011;10484;48.736;9.332;2023-11-19T08:20:35;0.50;;;0.40;;
20649;SDS011;10484;48.736;9.332;2023-11-19T08:23:02;0.73;;;0.70;;
20649;SDS011;10484;48.736;9.332;2023-11-19T08:25:28;1.00;;;0.90;;
20649;SDS011;10484;48.736;9.332;2023-11-19T08:27:54;0.70;;;0.60;;
20649;SDS011;10484;48.736;9.332;2023-11-19T08:30:19;1.00;;;0.83;;
20649;SDS011;10484;48.736;9.332;2023-11-19T08:32:45;0.80;;;0.80;;
20649;SDS011;10484;48.736;9.332;2023-11-19T08:35:11;0.80;;;0.70;;
20649;SDS011;10484;48.736;9.332;2023-11-19T08:37:36;0.70;;;0.60;;
20649;SDS011;10484;48.736;9.332;2023-11-19T08:40:02;0.67;;;0.57;;
20649;SDS011;10484;48.736;9.332;2023-11-19T08:42:29;0.50;;;0.50;;
20649;SDS011;10484;48.736;9.332;2023-11-19T08:44:55;0.80;;;0.80;;
20649;SDS011;10484;48.736;9.332;2023-11-19T08:47:21;0.53;;;0.50;;
20649;SDS011;10484;48.736;9.332;2023-11-19T08:49:47;0.93;;;0.70;;
20649;SDS011;10484;48.736;9.332;2023-11-19T08:52:15;1.07;;;0.50;;
20649;SDS011;10484;48.736;9.332;2023-11-19T08:54:42;1.27;;;0.77;;
20649;SDS011;10484;48.736;9.332;2023-11-19T08:57:08;0.70;;;0.40;;
20649;SDS011;10484;48.736;9.332;2023-11-19T08:59:34;2.00;;;0.63;;
20649;SDS011;10484;48.736;9.332;2023-11-19T09:01:59;0.73;;;0.73;;
20649;SDS011;10484;48.736;9.332;2023-11-19T09:04:25;1.10;;;0.70;;
20649;SDS011;10484;48.736;9.332;2023-11-19T09:06:50;0.70;;;0.60;;
20649;SDS011;10484;48.736;9.332;2023-11-19T09:09:16;1.07;;;0.80;;
20649;SDS011;10484;48.736;9.332;2023-11-19T09:11:42;0.50;;;0.40;;
20649;SDS011;10484;48.736;9.332;2023-11-19T09:14:07;0.63;;;0.63;;
20649;SDS011;10484;48.736;9.332;2023-11-19T09:16:33;0.80;;;0.70;;
20649;SDS011;10484;48.736;9.332;2023-11-19T09:18:59;0.60;;;0.53;;
20649;SDS011;10484;48.736;9.332;2023-11-19T09:21:25;0.90;;;0.60;;
20649;SDS011;10484;48.736;9.332;2023-11-19T09:23:51;0.70;;;0.60;;
20649;SDS011;10484;48.736;9.332;2023-11-19T09:26:18;1.40;;;0.43;;
20649;SDS011;10484;48.736;9.332;2023-11-19T09:28:44;0.60;;;0.40;;
20649;SDS011;10484;48.736;9.332;2023-11-19T09:31:13;1.13;;;0.63;;
20649;SDS011;10484;48.736;9.332;2023-11-19T09:33:40;0.60;;;0.60;;
20649;SDS011;10484;48.736;9.332;2023-11-19T09:36:05;0.93;;;0.50;;
20649;SDS011;10484;48.736;9.332;2023-11-19T09:38:31;1.20;;;1.10;;
20649;SDS011;10484;48.736;9.332;2023-11-19T09:40:58;1.00;;;0.53;;
20649;SDS011;10484;48.736;9.332;2023-11-19T09:43:24;0.60;;;0.47;;
20649;SDS011;10484;48.736;9.332;2023-11-19T09:45:53;1.10;;;0.70;;
20649;SDS011;10484;48.736;9.332;2023-11-19T09:48:21;0.87;;;0.60;;
20649;SDS011;10484;48.736;9.332;2023-11-19T09:50:49;1.00;;;0.80;;
20649;SDS011;10484;48.736;9.332;2023-11-19T09:53:16;0.70;;;0.63;;
20649;SDS011;10484;48.736;9.332;2023-11-19T09:55:42;0.83;;;0.70;;
20649;SDS011;10484;48.736;9.332;2023-11-19T09:58:08;1.47;;;0.90;;
20649;SDS011;10484;48.736;9.332;2023-11-19T10:00:36;0.87;;;0.73;;
20649;SDS011;10484;48.736;9.332;2023-11-19T10:03:02;1.00;;;0.80;;
20649;SDS011;10484;48.736;9.332;2023-11-19T10:05:32;1.20;;;0.80;;
20649;SDS011;10484;48.736;9.332;2023-11-19T10:07:57;1.83;;;0.60;;
20649;SDS011;10484;48.736;9.332;2023-11-19T10:10:23;3.20;;;0.70;;
20649;SDS011;10484;48.736;9.332;2023-11-19T10:12:51;2.00;;;0.47;;
20649;SDS011;10484;48.736;9.332;2023-11-19T10:15:19;0.87;;;0.53;;
20649;SDS011;10484;48.736;9.332;2023-11-19T10:17:47;1.17;;;0.50;;
20649;SDS011;10484;48.736;9.332;2023-11-19T10:20:13;1.60;;;0.60;;
20649;SDS011;10484;48.736;9.332;2023-11-19T10:22:39;1.70;;;0.60;;
20649;SDS011;10484;48.736;9.332;2023-11-19T10:25:05;1.20;;;0.57;;
20649;SDS011;10484;48.736;9.332;2023-11-19T10:27:46;0.87;;;0.63;;
20649;SDS011;10484;48.736;9.332;2023-11-19T10:30:13;0.80;;;0.60;;
20649;SDS011;10484;48.736;9.332;2023-11-19T10:32:42;1.13;;;0.50;;
20649;SDS011;10484;48.736;9.332;2023-11-19T10:35:08;0.60;;;0.50;;
20649;SDS011;10484;48.736;9.332;2023-11-19T10:37:34;10.67;;;1.67;;
20649;SDS011;10484;48.736;9.332;2023-11-19T10:40:02;1.77;;;0.70;;
20649;SDS011;10484;48.736;9.332;2023-11-19T10:42:30;0.80;;;0.50;;
20649;SDS011;10484;48.736;9.332;2023-11-19T10:44:56;1.10;;;0.73;;
20649;SDS011;10484;48.736;9.332;2023-11-19T10:47:22;0.80;;;0.80;;
20649;SDS011;10484;48.736;9.332;2023-11-19T10:49:48;1.30;;;0.60;;
20649;SDS011;10484;48.736;9.332;2023-11-19T10:52:16;1.83;;;0.63;;
20649;SDS011;10484;48.736;9.332;2023-11-19T10:54:44;3.10;;;0.80;;
20649;SDS011;10484;48.736;9.332;2023-11-19T10:57:15;1.23;;;0.40;;
20649;SDS011;10484;48.736;9.332;2023-11-19T10:59:46;0.50;;;0.40;;
20649;SDS011;10484;48.736;9.332;2023-11-19T11:02:12;0.70;;;0.60;;
20649;SDS011;10484;48.736;9.332;2023-11-19T11:04:44;1.67;;;0.60;;
20649;SDS011;10484;48.736;9.332;2023-11-19T11:07:12;0.77;;;0.30;;
20649;SDS011;10484;48.736;9.332;2023-11-19T11:09:41;0.50;;;0.40;;
20649;SDS011;10484;48.736;9.332;2023-11-19T11:12:06;1.97;;;0.60;;
20649;SDS011;10484;48.736;9.332;2023-11-19T11:14:34;1.20;;;0.97;;
20649;SDS011;10484;48.736;9.332;2023-11-19T11:17:05;1.00;;;0.67;;
20649;SDS011;10484;48.736;9.332;2023-11-19T11:19:33;0.77;;;0.47;;
20649;SDS011;10484;48.736;9.332;2023-11-19T11:21:59;0.60;;;0.57;;
20649;SDS011;10484;48.736;9.332;2023-11-19T11:27:11;3.30;;;0.80;;
20649;SDS011;10484;48.736;9.332;2023-11-19T11:33:11;2.90;;;0.90;;
20649;SDS011;10484;48.736;9.332;2023-11-19T11:38:31;0.87;;;0.63;;
20649;SDS011;10484;48.736;9.332;2023-11-19T11:41:16;0.80;;;0.63;;
20649;SDS011;10484;48.736;9.332;2023-11-19T11:43:50;0.90;;;0.63;;
20649;SDS011;10484;48.736;9.332;2023-11-19T11:49:04;0.90;;;0.70;;
20649;SDS011;10484;48.736;9.332;2023-11-19T11:51:57;1.00;;;0.50;;
20649;SDS011;10484;48.736;9.332;2023-11-19T11:59:27;1.30;;;0.77;;
20649;SDS011;10484;48.736;9.332;2023-11-19T12:02:18;0.50;;;0.50;;
20649;SDS011;10484;48.736;9.332;2023-11-19T12:04:46;0.50;;;0.47;;
20649;SDS011;10484;48.736;9.332;2023-11-19T12:07:21;0.87;;;0.70;;
20649;SDS011;10484;48.736;9.332;2023-11-19T12:09:49;0.57;;;0.50;;
20649;SDS011;10484;48.736;9.332;2023-11-19T12:12:18;1.00;;;0.50;;
20649;SDS011;10484;48.736;9.332;2023-11-19T12:20:17;0.53;;;0.53;;
20649;SDS011;10484;48.736;9.332;2023-11-19T12:22:44;1.87;;;0.80;;
20649;SDS011;10484;48.736;9.332;2023-11-19T12:25:12;0.97;;;0.57;;
20649;SDS011;10484;48.736;9.332;2023-11-19T12:27:45;1.17;;;0.60;;
20649;SDS011;10484;48.736;9.332;2023-11-19T12:30:24;0.80;;;0.60;;
20649;SDS011;10484;48.736;9.332;2023-11-19T12:32:50;0.83;;;0.67;;
20649;SDS011;10484;48.736;9.332;2023-11-19T12:35:18;3.73;;;0.50;;
20649;SDS011;10484;48.736;9.332;2023-11-19T12:42:45;1.13;;;0.50;;
20649;SDS011;10484;48.736;9.332;2023-11-19T12:45:11;1.63;;;0.50;;
20649;SDS011;10484;48.736;9.332;2023-11-19T12:47:40;2.33;;;0.60;;
20649;SDS011;10484;48.736;9.332;2023-11-19T12:50:06;1.37;;;0.50;;
20649;SDS011;10484;48.736;9.332;2023-11-19T12:52:33;0.50;;;0.47;;
20649;SDS011;10484;48.736;9.332;2023-11-19T12:54:59;0.50;;;0.40;;
20649;SDS011;10484;48.736;9.332;2023-11-19T12:57:38;0.80;;;0.60;;
20649;SDS011;10484;48.736;9.332;2023-11-19T13:00:05;0.90;;;0.43;;
20649;SDS011;10484;48.736;9.332;2023-11-19T13:02:47;0.70;;;0.50;;
20649;SDS011;10484;48.736;9.332;2023-11-19T13:07:59;0.90;;;0.50;;
20649;SDS011;10484;48.736;9.332;2023-11-19T13:10:29;1.67;;;0.50;;
20649;SDS011;10484;48.736;9.332;2023-11-19T13:15:28;1.00;;;0.40;;
20649;SDS011;10484;48.736;9.332;2023-11-19T13:17:54;0.70;;;0.53;;
20649;SDS011;10484;48.736;9.332;2023-11-19T13:20:20;1.37;;;0.50;;
20649;SDS011;10484;48.736;9.332;2023-11-19T13:22:59;1.37;;;0.67;;
20649;SDS011;10484;48.736;9.332;2023-11-19T13:25:26;1.07;;;0.50;;
20649;SDS011;10484;48.736;9.332;2023-11-19T13:27:52;2.43;;;0.60;;
20649;SDS011;10484;48.736;9.332;2023-11-19T13:30:19;1.20;;;0.60;;
20649;SDS011;10484;48.736;9.332;2023-11-19T13:32:45;1.00;;;0.50;;
20649;SDS011;10484;48.736;9.332;2023-11-19T13:35:11;1.07;;;0.50;;
20649;SDS011;10484;48.736;9.332;2023-11-19T13:37:37;0.80;;;0.53;;
20649;SDS011;10484;48.736;9.332;2023-11-19T13:40:04;2.17;;;0.60;;
20649;SDS011;10484;48.736;9.332;2023-11-19T13:42:31;1.80;;;0.53;;
20649;SDS011;10484;48.736;9.332;2023-11-19T13:44:56;1.40;;;0.40;;
20649;SDS011;10484;48.736;9.332;2023-11-19T13:47:22;2.53;;;0.50;;
20649;SDS011;10484;48.736;9.332;2023-11-19T13:49:48;1.30;;;0.50;;
20649;SDS011;10484;48.736;9.332;2023-11-19T13:52:14;0.90;;;0.53;;
20649;SDS011;10484;48.736;9.332;2023-11-19T13:54:40;2.50;;;0.77;;
20649;SDS011;10484;48.736;9.332;2023-11-19T13:57:06;0.90;;;0.60;;
20649;SDS011;10484;48.736;9.332;2023-11-19T13:59:31;1.13;;;0.63;;
20649;SDS011;10484;48.736;9.332;2023-11-19T14:01:57;1.57;;;0.50;;
20649;SDS011;10484;48.736;9.332;2023-11-19T14:04:23;0.90;;;0.60;;
20649;SDS011;10484;48.736;9.332;2023-11-19T14:06:50;0.90;;;0.60;;
20649;SDS011;10484;48.736;9.332;2023-11-19T14:09:16;3.03;;;0.67;;
20649;SDS011;10484;48.736;9.332;2023-11-19T14:11:42;1.10;;;0.50;;
20649;SDS011;10484;48.736;9.332;2023-11-19T14:14:08;1.00;;;0.67;;
20649;SDS011;10484;48.736;9.332;2023-11-19T14:16:33;3.17;;;0.70;;
20649;SDS011;10484;48.736;9.332;2023-11-19T14:18:59;2.43;;;0.73;;
20649;SDS011;10484;48.736;9.332;2023-11-19T14:21:25;0.80;;;0.70;;
20649;SDS011;10484;48.736;9.332;2023-11-19T14:23:51;1.27;;;0.40;;
20649;SDS011;10484;48.736;9.332;2023-11-19T14:26:17;1.17;;;0.53;;
20649;SDS011;10484;48.736;9.332;2023-11-19T14:28:43;1.93;;;0.60;;
20649;SDS011;10484;48.736;9.332;2023-11-19T14:31:09;1.30;;;0.57;;
20649;SDS011;10484;48.736;9.332;2023-11-19T14:33:34;0.80;;;0.50;;
20649;SDS011;10484;48.736;9.332;2023-11-19T14:36:01;1.53;;;0.53;;
20649;SDS011;10484;48.736;9.332;2023-11-19T14:38:27;0.80;;;0.40;;
20649;SDS011;10484;48.736;9.332;2023-11-19T14:40:52;2.30;;;0.63;;
20649;SDS011;10484;48.736;9.332;2023-11-19T14:43:19;0.77;;;0.63;;
20649;SDS011;10484;48.736;9.332;2023-11-19T14:45:45;1.20;;;0.70;;
20649;SDS011;10484;48.736;9.332;2023-11-19T14:48:10;2.27;;;0.40;;
20649;SDS011;10484;48.736;9.332;2023-11-19T14:50:36;0.60;;;0.60;;
20649;SDS011;10484;48.736;9.332;2023-11-19T14:53:02;1.90;;;0.73;;
20649;SDS011;10484;48.736;9.332;2023-11-19T14:55:28;1.53;;;1.00;;
20649;SDS011;10484;48.736;9.332;2023-11-19T14:57:53;1.63;;;0.60;;
20649;SDS011;10484;48.736;9.332;2023-11-19T15:00:19;0.60;;;0.60;;
20649;SDS011;10484;48.736;9.332;2023-11-19T15:02:46;1.00;;;0.80;;
20649;SDS011;10484;48.736;9.332;2023-11-19T15:05:11;0.83;;;0.70;;
20649;SDS011;10484;48.736;9.332;2023-11-19T15:07:38;1.10;;;0.80;;
20649;SDS011;10484;48.736;9.332;2023-11-19T15:10:05;1.10;;;0.57;;
20649;SDS011;10484;48.736;9.332;2023-11-19T15:12:34;1.50;;;0.83;;
20649;SDS011;10484;48.736;9.332;2023-11-19T15:15:04;0.70;;;0.60;;
20649;SDS011;10484;48.736;9.332;2023-11-19T15:17:34;0.97;;;0.80;;
20649;SDS011;10484;48.736;9.332;2023-11-19T15:20:01;0.97;;;0.50;;
20649;SDS011;10484;48.736;9.332;2023-11-19T15:22:27;0.97;;;0.70;;